Time;durP1;ratioP1;P1;durP2;ratioP2;P2;SDS_P1;SDS_P2;PMS_P1;PMS_P2;Temp;Humidity;BMP_temperature;BMP_pressure;BME280_temperature;BME280_humidity;BME280_pressure;Samples;Min_cycle;Max_cycle;Signal;HPM_P1;HPM_P2
2022/09/14 00:01:36;;;;;;;3.47;1.92;;;15.10;53.00;;;;;;4892984;29;20681;-46
2022/09/14 00:04:09;;;;;;;3.25;1.95;;;15.20;53.00;;;;;;4860452;29;20286;-35
2022/09/14 00:06:42;;;;;;;4.97;2.42;;;15.20;52.90;;;;;;4893369;29;20220;-34
2022/09/14 00:09:17;;;;;;;2.78;2.30;;;15.20;52.90;;;;;;4895985;29;20201;-35
2022/09/14 00:11:48;;;;;;;2.75;1.88;;;15.20;52.90;;;;;;4895278;29;20215;-35
2022/09/14 00:14:20;;;;;;;3.72;2.03;;;15.30;53.00;;;;;;4895285;29;20592;-34
2022/09/14 00:16:50;;;;;;;3.30;2.75;;;15.30;53.10;;;;;;4895310;29;20247;-37
2022/09/14 00:19:23;;;;;;;4.30;2.10;;;15.30;53.10;;;;;;4894545;29;20208;-36
2022/09/14 00:21:58;;;;;;;3.10;2.00;;;15.30;53.70;;;;;;4894613;29;20208;-39
2022/09/14 00:24:31;;;;;;;3.88;2.03;;;15.30;53.10;;;;;;4889049;29;20275;-36
2022/09/14 00:27:03;;;;;;;4.25;2.17;;;15.40;53.10;;;;;;4876696;29;20217;-37
2022/09/14 00:29:34;;;;;;;4.45;2.25;;;15.40;53.10;;;;;;4880603;29;20654;-40
2022/09/14 00:32:05;;;;;;;2.97;2.00;;;15.40;53.10;;;;;;4861939;29;20271;-37
2022/09/14 00:34:35;;;;;;;3.95;2.17;;;15.40;53.00;;;;;;4873658;29;20201;-37
2022/09/14 00:37:08;;;;;;;2.42;1.77;;;15.40;52.90;;;;;;4898672;29;20221;-35
2022/09/14 00:39:39;;;;;;;3.22;2.30;;;15.40;52.80;;;;;;4890149;29;20202;-39
2022/09/14 00:42:15;;;;;;;3.17;1.80;;;15.50;52.80;;;;;;4861982;29;20202;-37
2022/09/14 00:45:07;;;;;;;4.22;2.10;;;15.50;52.80;;;;;;4860759;29;20216;-36
2022/09/14 00:47:38;;;;;;;4.18;2.03;;;15.50;52.70;;;;;;4860898;29;20233;-35
2022/09/14 00:50:10;;;;;;;3.38;1.80;;;15.50;52.80;;;;;;4871222;29;20604;-37
2022/09/14 00:52:45;;;;;;;4.75;2.35;;;15.60;52.80;;;;;;4874762;29;20198;-34
2022/09/14 00:55:17;;;;;;;2.78;1.70;;;15.60;53.00;;;;;;4880399;29;20212;-35
2022/09/14 00:57:50;;;;;;;2.55;1.83;;;15.60;53.00;;;;;;4882540;29;20221;-35
2022/09/14 01:00:25;;;;;;;4.53;2.05;;;15.60;53.00;;;;;;4870938;29;20239;-34
2022/09/14 01:02:55;;;;;;;3.13;2.00;;;15.70;53.00;;;;;;4880353;29;20226;-35
2022/09/14 01:05:34;;;;;;;2.58;1.92;;;15.70;52.90;;;;;;4879625;29;20197;-35
2022/09/14 01:08:20;;;;;;;2.85;1.77;;;15.70;52.90;;;;;;4896732;29;20224;-37
2022/09/14 01:11:10;;;;;;;2.53;1.55;;;15.70;52.80;;;;;;4885953;29;20446;-40
2022/09/14 01:13:47;;;;;;;2.35;1.75;;;15.70;52.70;;;;;;4879430;29;20267;-36
2022/09/14 01:16:26;;;;;;;3.45;1.65;;;15.70;52.70;;;;;;4882405;29;20225;-35
2022/09/14 01:19:01;;;;;;;2.95;1.95;;;15.80;52.70;;;;;;4897460;29;20200;-35
2022/09/14 01:21:35;;;;;;;2.25;1.60;;;15.80;52.80;;;;;;4897681;29;20279;-34
2022/09/14 01:24:14;;;;;;;2.88;2.00;;;15.80;52.80;;;;;;4897338;29;20604;-36
2022/09/14 01:27:29;;;;;;;3.42;1.67;;;15.80;53.40;;;;;;4897546;29;20298;-35
2022/09/14 01:30:08;;;;;;;2.35;1.77;;;15.90;52.80;;;;;;4885507;29;20213;-37
2022/09/14 01:32:45;;;;;;;2.75;1.58;;;15.90;52.80;;;;;;4897638;29;20208;-43
2022/09/14 01:35:21;;;;;;;2.55;1.70;;;15.90;52.80;;;;;;4898002;29;20215;-39
2022/09/14 01:37:56;;;;;;;2.55;1.75;;;15.90;52.80;;;;;;4896992;29;20236;-37
2022/09/14 01:40:31;;;;;;;3.08;1.95;;;15.90;52.80;;;;;;4883591;29;20206;-40
2022/09/14 01:43:04;;;;;;;3.13;1.83;;;16.00;52.80;;;;;;4892992;29;20224;-36
2022/09/14 01:45:40;;;;;;;2.00;1.70;;;16.00;52.70;;;;;;4892387;29;20208;-38
2022/09/14 01:48:14;;;;;;;3.50;1.95;;;16.00;52.70;;;;;;4894593;29;20213;-38
2022/09/14 01:50:46;;;;;;;3.28;1.80;;;16.00;52.70;;;;;;4898468;29;20201;-36
2022/09/14 01:53:20;;;;;;;2.40;1.65;;;16.00;52.80;;;;;;4897436;29;20205;-35
2022/09/14 01:55:57;;;;;;;3.22;1.88;;;16.10;52.80;;;;;;4893424;29;20657;-46
2022/09/14 01:58:34;;;;;;;2.17;1.70;;;16.10;52.80;;;;;;4891653;29;20209;-36
2022/09/14 02:01:09;;;;;;;2.10;1.50;;;16.20;52.80;;;;;;4877815;29;20201;-34
2022/09/14 02:03:43;;;;;;;1.77;1.50;;;16.20;52.80;;;;;;4896726;29;20224;-37
2022/09/14 02:06:18;;;;;;;2.47;1.70;;;16.20;52.80;;;;;;4859566;29;20297;-37
2022/09/14 02:08:49;;;;;;;3.10;1.90;;;16.20;52.80;;;;;;4897041;29;20208;-41
2022/09/14 02:11:19;;;;;;;2.53;1.50;;;16.30;52.80;;;;;;4877561;29;20209;-41
2022/09/14 02:13:50;;;;;;;2.60;1.60;;;16.30;52.80;;;;;;4877792;29;20733;-35
2022/09/14 02:16:24;;;;;;;2.45;1.58;;;16.30;52.80;;;;;;4877950;29;20639;-35
2022/09/14 02:18:55;;;;;;;2.97;1.50;;;16.30;52.60;;;;;;4878388;29;20209;-41
2022/09/14 02:21:30;;;;;;;1.65;1.50;;;16.30;52.60;;;;;;4878126;29;20216;-41
2022/09/14 02:24:01;;;;;;;2.08;1.40;;;16.40;52.60;;;;;;4896786;29;20224;-40
2022/09/14 02:26:32;;;;;;;2.05;1.60;;;16.40;52.60;;;;;;4897041;29;20232;-39
2022/09/14 02:29:03;;;;;;;2.55;1.35;;;16.40;52.60;;;;;;4896638;29;20201;-39
2022/09/14 02:31:47;;;;;;;1.67;1.58;;;16.40;52.70;;;;;;4896381;29;20209;-35
2022/09/14 02:34:25;;;;;;;1.98;1.40;;;16.50;53.30;;;;;;4896957;29;20200;-35
2022/09/14 02:37:03;;;;;;;2.25;1.50;;;16.50;52.70;;;;;;4884241;29;20220;-34
2022/09/14 02:39:42;;;;;;;1.38;1.20;;;16.50;52.70;;;;;;4892470;29;20659;-37
2022/09/14 02:42:24;;;;;;;2.30;1.55;;;16.50;52.70;;;;;;4883085;29;20275;-41
2022/09/14 02:45:04;;;;;;;1.50;1.40;;;16.50;52.70;;;;;;4896368;29;20236;-45
2022/09/14 02:47:47;;;;;;;1.83;1.35;;;16.50;52.60;;;;;;4890001;29;20717;-43
2022/09/14 02:50:23;;;;;;;1.90;1.60;;;16.50;52.50;;;;;;4896057;29;20204;-39
2022/09/14 02:53:01;;;;;;;2.15;1.65;;;16.60;52.50;;;;;;4896815;29;20235;-37
2022/09/14 02:55:36;;;;;;;2.50;1.52;;;16.60;52.50;;;;;;4897063;29;20200;-35
2022/09/14 02:58:08;;;;;;;2.92;1.45;;;16.60;52.50;;;;;;4896395;29;20220;-35
2022/09/14 03:00:40;;;;;;;1.58;1.10;;;16.60;52.60;;;;;;4881565;29;20716;-35
2022/09/14 03:03:15;;;;;;;1.75;1.52;;;16.60;52.50;;;;;;4882841;29;20209;-39
2022/09/14 03:05:46;;;;;;;2.22;1.55;;;16.60;52.50;;;;;;4878114;29;20674;-37
2022/09/14 03:08:17;;;;;;;2.60;1.65;;;16.70;52.60;;;;;;4889182;29;20224;-38
2022/09/14 03:10:47;;;;;;;2.55;1.63;;;16.60;52.60;;;;;;4886441;29;20228;-35
2022/09/14 03:13:18;;;;;;;3.33;1.77;;;16.70;52.60;;;;;;4875633;29;20204;-37
2022/09/14 03:15:49;;;;;;;2.40;1.42;;;16.70;52.60;;;;;;4857591;29;20214;-35
2022/09/14 03:18:22;;;;;;;2.22;1.38;;;16.70;52.50;;;;;;4882544;29;20256;-35
2022/09/14 03:20:52;;;;;;;2.50;1.52;;;16.70;52.50;;;;;;4882078;29;20579;-42
2022/09/14 03:23:23;;;;;;;2.83;1.92;;;16.70;52.50;;;;;;4874538;29;20213;-35
2022/09/14 03:25:54;;;;;;;1.98;1.50;;;16.80;52.50;;;;;;4876914;29;20632;-38
2022/09/14 03:28:26;;;;;;;2.00;1.50;;;16.80;52.40;;;;;;4889106;29;20200;-39
2022/09/14 03:30:57;;;;;;;1.80;1.58;;;16.80;52.50;;;;;;4895908;29;20213;-37
2022/09/14 03:33:30;;;;;;;1.88;1.40;;;16.80;52.40;;;;;;4895321;29;20222;-35
2022/09/14 03:36:01;;;;;;;1.95;1.30;;;16.80;52.30;;;;;;4894910;29;20208;-42
2022/09/14 03:38:32;;;;;;;1.67;1.15;;;16.80;52.40;;;;;;4894637;29;20208;-44
2022/09/14 03:41:02;;;;;;;2.08;1.55;;;16.80;52.30;;;;;;4876825;29;20202;-42
2022/09/14 03:43:33;;;;;;;1.75;1.33;;;16.80;52.30;;;;;;4872699;29;20205;-35
2022/09/14 03:46:08;;;;;;;1.50;1.40;;;16.80;52.30;;;;;;4878124;29;20203;-39
2022/09/14 03:48:41;;;;;;;1.88;1.48;;;16.80;52.30;;;;;;4875577;29;20595;-44
2022/09/14 03:51:12;;;;;;;2.42;1.75;;;16.80;52.20;;;;;;4876147;29;20205;-35
2022/09/14 03:53:45;;;;;;;2.30;1.50;;;16.80;52.20;;;;;;4876257;29;20690;-35
2022/09/14 03:56:18;;;;;;;1.95;1.40;;;16.80;52.20;;;;;;4876209;29;20650;-38
2022/09/14 03:58:50;;;;;;;2.05;1.30;;;16.90;52.20;;;;;;4876015;29;20213;-37
2022/09/14 04:01:22;;;;;;;2.20;1.52;;;16.80;52.10;;;;;;4875291;29;20213;-38
2022/09/14 04:03:55;;;;;;;1.77;1.42;;;16.90;52.80;;;;;;4873464;29;20232;-44
2022/09/14 04:06:25;;;;;;;2.20;1.20;;;16.90;52.20;;;;;;4877498;29;20245;-39
2022/09/14 04:08:56;;;;;;;2.28;1.75;;;16.90;52.20;;;;;;4868648;29;20201;-39
2022/09/14 04:11:29;;;;;;;1.75;1.30;;;16.90;52.30;;;;;;4876561;29;20289;-37
2022/09/14 04:14:04;;;;;;;1.60;1.50;;;16.90;52.20;;;;;;4876672;29;20205;-38
2022/09/14 04:16:34;;;;;;;1.52;1.23;;;16.90;52.20;;;;;;4877726;29;20225;-41
2022/09/14 04:19:07;;;;;;;1.50;1.15;;;16.90;52.30;;;;;;4895404;29;20205;-35
2022/09/14 04:21:38;;;;;;;1.75;1.50;;;16.90;52.30;;;;;;4881735;29;20197;-38
2022/09/14 04:24:08;;;;;;;2.40;1.65;;;16.90;52.20;;;;;;4892742;29;20704;-43
2022/09/14 04:26:39;;;;;;;1.85;1.30;;;16.90;52.80;;;;;;4876815;29;20253;-35
2022/09/14 04:29:11;;;;;;;1.33;1.20;;;16.90;52.20;;;;;;4894574;29;20204;-38
2022/09/14 04:31:42;;;;;;;2.10;1.40;;;16.90;52.20;;;;;;4878227;29;20202;-36
2022/09/14 04:34:16;;;;;;;2.00;1.30;;;16.90;52.30;;;;;;4876810;29;20217;-35
2022/09/14 04:36:46;;;;;;;1.92;1.38;;;17.00;52.30;;;;;;4877752;29;20221;-35
2022/09/14 04:39:17;;;;;;;2.35;1.25;;;17.00;52.30;;;;;;4894946;29;20201;-41
2022/09/14 04:41:48;;;;;;;1.65;1.50;;;17.00;52.20;;;;;;4877983;29;20208;-45
2022/09/14 04:44:19;;;;;;;1.73;1.30;;;17.00;52.20;;;;;;4894647;29;20719;-42
2022/09/14 04:46:50;;;;;;;1.83;1.60;;;17.10;52.20;;;;;;4894243;29;20217;-37
2022/09/14 04:49:22;;;;;;;9.98;3.33;;;17.10;52.20;;;;;;4894803;29;20209;-35
2022/09/14 04:51:53;;;;;;;14.45;4.78;;;17.10;51.60;;;;;;4895353;29;20207;-38
2022/09/14 04:54:24;;;;;;;8.85;3.67;;;17.10;50.70;;;;;;4895182;29;20200;-36
2022/09/14 04:56:55;;;;;;;7.70;2.90;;;17.10;50.70;;;;;;4881942;29;20213;-48
2022/09/14 04:59:25;;;;;;;7.28;3.15;;;17.20;50.90;;;;;;4894676;29;20211;-46
2022/09/14 05:01:56;;;;;;;7.28;3.08;;;17.20;51.10;;;;;;4894417;29;20584;-46
2022/09/14 05:04:29;;;;;;;5.75;3.30;;;17.20;51.10;;;;;;4895800;29;20311;-41
2022/09/14 05:06:59;;;;;;;8.43;2.83;;;17.20;51.10;;;;;;4894610;29;20852;-38
2022/09/14 05:09:30;;;;;;;7.63;3.22;;;17.20;51.10;;;;;;4894926;29;20600;-39
2022/09/14 05:12:01;;;;;;;9.93;3.65;;;17.30;51.20;;;;;;4877412;29;20205;-41
2022/09/14 05:14:32;;;;;;;8.93;3.05;;;17.30;51.10;;;;;;4897164;29;20219;-41
2022/09/14 05:17:03;;;;;;;8.68;3.70;;;17.30;51.10;;;;;;4897843;29;20685;-50
2022/09/14 05:19:36;;;;;;;7.13;3.05;;;17.20;51.10;;;;;;4898481;29;20287;-44
2022/09/14 05:22:06;;;;;;;5.57;2.70;;;17.30;51.20;;;;;;4884024;29;20201;-38
2022/09/14 05:24:37;;;;;;;8.75;3.10;;;17.30;51.30;;;;;;4898759;29;20225;-45
2022/09/14 05:27:08;;;;;;;8.77;3.47;;;17.20;51.30;;;;;;4898025;29;20621;-39
2022/09/14 05:29:39;;;;;;;7.50;3.08;;;17.30;51.20;;;;;;4897771;29;20539;-46
2022/09/14 05:32:09;;;;;;;5.45;2.97;;;17.30;51.20;;;;;;4898873;29;20308;-44
2022/09/14 05:34:42;;;;;;;7.82;3.15;;;17.20;51.80;;;;;;4898449;29;20575;-36
2022/09/14 05:37:14;;;;;;;5.78;3.00;;;17.20;51.10;;;;;;4898179;29;20216;-42
2022/09/14 05:39:45;;;;;;;9.30;3.65;;;17.20;51.10;;;;;;4894950;29;20205;-40
2022/09/14 05:42:16;;;;;;;8.55;3.60;;;17.20;51.10;;;;;;4880790;29;20213;-35
2022/09/14 05:44:47;;;;;;;5.82;3.00;;;17.20;51.10;;;;;;4897515;29;20225;-45
2022/09/14 05:47:17;;;;;;;7.95;3.65;;;17.30;51.20;;;;;;4894040;29;20213;-45
2022/09/14 05:49:50;;;;;;;6.70;3.28;;;17.30;51.20;;;;;;4897904;29;20225;-37
2022/09/14 05:52:21;;;;;;;7.38;3.38;;;17.20;51.20;;;;;;4897708;29;20200;-36
2022/09/14 05:54:51;;;;;;;5.00;2.95;;;17.20;51.20;;;;;;4898350;29;20209;-39
2022/09/14 05:57:22;;;;;;;5.57;3.20;;;17.20;51.20;;;;;;4891220;29;20725;-37
2022/09/14 05:59:53;;;;;;;7.18;3.88;;;17.20;51.20;;;;;;4897372;29;20201;-40
2022/09/14 06:02:23;;;;;;;6.03;3.25;;;17.20;51.80;;;;;;4897314;29;20209;-35
2022/09/14 06:04:56;;;;;;;6.45;3.53;;;17.20;51.10;;;;;;4898231;29;20255;-41
2022/09/14 06:07:27;;;;;;;5.05;3.42;;;17.20;51.10;;;;;;4896940;29;20221;-36
2022/09/14 06:09:57;;;;;;;7.43;3.65;;;17.20;51.10;;;;;;4894152;29;20662;-40
2022/09/14 06:12:29;;;;;;;6.30;3.67;;;17.10;51.10;;;;;;4880348;29;20202;-37
2022/09/14 06:15:00;;;;;;;4.43;3.10;;;17.20;51.20;;;;;;4897832;29;20228;-48
2022/09/14 06:17:32;;;;;;;5.43;3.10;;;17.10;51.20;;;;;;4896541;29;20227;-40
2022/09/14 06:20:06;;;;;;;5.95;3.00;;;17.10;51.20;;;;;;4897314;29;20201;-39
2022/09/14 06:22:36;;;;;;;7.05;3.65;;;17.10;51.20;;;;;;4897367;29;20217;-45
2022/09/14 06:25:07;;;;;;;5.82;3.38;;;17.10;51.20;;;;;;4888430;29;20235;-46
2022/09/14 06:27:38;;;;;;;4.78;3.10;;;17.10;51.20;;;;;;4880811;29;20488;-38
2022/09/14 06:30:10;;;;;;;5.53;3.35;;;17.10;51.20;;;;;;4897599;29;20248;-43
2022/09/14 06:32:41;;;;;;;5.57;3.40;;;17.10;51.20;;;;;;4897242;29;20700;-49
2022/09/14 06:35:13;;;;;;;6.25;3.67;;;17.00;51.20;;;;;;4898089;29;20324;-38
2022/09/14 06:37:44;;;;;;;5.03;3.28;;;17.10;51.20;;;;;;4897286;29;20220;-37
2022/09/14 06:40:15;;;;;;;4.80;3.42;;;17.00;51.10;;;;;;4891105;29;20558;-38
2022/09/14 06:42:46;;;;;;;5.55;3.63;;;17.00;51.20;;;;;;4880220;29;20209;-40
2022/09/14 06:45:16;;;;;;;5.78;3.28;;;17.00;51.20;;;;;;4896395;29;20762;-41
2022/09/14 06:47:47;;;;;;;5.03;3.70;;;16.90;51.20;;;;;;4897059;29;20217;-44
2022/09/14 06:50:20;;;;;;;4.82;3.50;;;16.90;51.10;;;;;;4896415;29;20292;-36
2022/09/14 06:52:51;;;;;;;5.82;3.55;;;16.90;51.10;;;;;;4896206;29;20650;-38
2022/09/14 06:55:21;;;;;;;5.82;4.00;;;16.90;51.20;;;;;;4896654;29;20220;-39
2022/09/14 06:57:52;;;;;;;5.43;3.53;;;16.80;51.20;;;;;;4886828;29;20227;-43
2022/09/14 07:00:23;;;;;;;8.50;3.88;;;16.80;51.20;;;;;;4896522;29;20693;-41
2022/09/14 07:02:54;;;;;;;5.38;3.67;;;16.80;51.10;;;;;;4896671;29;20239;-38
2022/09/14 07:05:26;;;;;;;5.70;3.45;;;16.80;51.20;;;;;;4896946;29;20232;-44
2022/09/14 07:07:57;;;;;;;6.63;3.95;;;16.70;51.10;;;;;;4896202;29;20225;-47
2022/09/14 07:10:28;;;;;;;4.97;3.25;;;16.70;51.10;;;;;;4888337;29;20722;-44
2022/09/14 07:13:00;;;;;;;5.28;3.60;;;16.70;51.10;;;;;;4880314;29;20284;-44
2022/09/14 07:15:32;;;;;;;5.32;3.60;;;16.70;51.10;;;;;;4896046;29;20209;-47
2022/09/14 07:18:03;;;;;;;5.03;3.53;;;16.60;51.10;;;;;;4894875;29;20247;-43
2022/09/14 07:20:36;;;;;;;5.40;3.88;;;16.60;51.10;;;;;;4893715;29;20204;-39
2022/09/14 07:23:07;;;;;;;5.50;3.72;;;16.60;51.20;;;;;;4893882;29;20205;-43
2022/09/14 07:25:37;;;;;;;5.38;3.92;;;16.50;51.40;;;;;;4893210;29;20255;-37
2022/09/14 07:28:08;;;;;;;5.00;3.70;;;16.50;51.20;;;;;;4893238;29;20221;-36
2022/09/14 07:30:40;;;;;;;6.22;3.65;;;16.50;51.20;;;;;;4877180;29;20702;-41
2022/09/14 07:33:11;;;;;;;5.88;4.43;;;16.40;51.30;;;;;;4875818;29;20666;-39
2022/09/14 07:35:43;;;;;;;4.88;3.47;;;16.40;51.30;;;;;;4876798;29;20575;-41
2022/09/14 07:38:14;;;;;;;5.30;4.05;;;16.40;51.30;;;;;;4876567;29;20225;-45
2022/09/14 07:40:45;;;;;;;5.43;3.90;;;16.40;51.30;;;;;;4876602;29;20206;-41
2022/09/14 07:43:15;;;;;;;7.43;4.18;;;16.40;51.30;;;;;;4876141;29;20201;-43
2022/09/14 07:45:46;;;;;;;7.72;3.95;;;16.30;51.20;;;;;;4875453;29;20229;-36
2022/09/14 07:48:17;;;;;;;5.70;3.95;;;16.30;51.50;;;;;;4876111;29;20222;-37
2022/09/14 07:50:50;;;;;;;5.40;3.63;;;16.30;51.30;;;;;;4876021;29;20204;-41
2022/09/14 07:53:20;;;;;;;5.53;3.80;;;16.20;51.30;;;;;;4878591;29;20205;-35
2022/09/14 07:55:51;;;;;;;6.65;3.75;;;16.20;51.30;;;;;;4876634;29;20261;-42
2022/09/14 07:58:22;;;;;;;5.30;3.45;;;16.10;51.30;;;;;;4876206;29;20225;-48
2022/09/14 08:00:53;;;;;;;3.97;3.55;;;16.10;51.40;;;;;;4875797;29;20201;-38
2022/09/14 08:03:24;;;;;;;4.88;3.50;;;16.10;51.50;;;;;;4873372;29;20206;-43
2022/09/14 08:06:04;;;;;;;5.32;3.33;;;16.00;51.50;;;;;;4876600;29;20233;-42
2022/09/14 08:08:36;;;;;;;5.43;3.83;;;16.00;51.50;;;;;;4876171;29;20202;-41
2022/09/14 08:11:09;;;;;;;4.70;3.25;;;16.00;51.50;;;;;;4875305;29;20265;-39
2022/09/14 08:13:42;;;;;;;5.78;4.18;;;16.00;51.50;;;;;;4875544;29;20309;-39
2022/09/14 08:16:13;;;;;;;4.25;3.05;;;16.00;51.50;;;;;;4875409;29;20208;-39
2022/09/14 08:18:44;;;;;;;4.00;3.30;;;15.90;51.40;;;;;;4875747;29;20205;-43
2022/09/14 08:21:17;;;;;;;5.43;3.15;;;15.90;51.50;;;;;;4875664;29;20213;-39
2022/09/14 08:23:48;;;;;;;4.18;3.42;;;15.90;51.50;;;;;;4875563;29;20206;-37
2022/09/14 08:26:21;;;;;;;4.10;3.42;;;15.90;51.60;;;;;;4875613;29;20264;-35
2022/09/14 08:28:53;;;;;;;5.28;3.38;;;15.80;51.60;;;;;;4875578;29;20189;-47
2022/09/14 08:31:24;;;;;;;4.82;3.40;;;15.80;51.70;;;;;;4875317;29;20217;-39
2022/09/14 08:33:58;;;;;;;4.07;3.53;;;15.80;51.70;;;;;;4876355;29;20205;-39
2022/09/14 08:36:32;;;;;;;4.28;3.58;;;15.70;51.70;;;;;;4875997;29;20225;-37
2022/09/14 08:39:03;;;;;;;3.97;3.20;;;15.70;51.60;;;;;;4876209;29;20212;-40
2022/09/14 08:41:39;;;;;;;4.10;3.33;;;15.70;51.70;;;;;;4875671;29;20217;-39
2022/09/14 08:44:18;;;;;;;3.90;3.50;;;15.70;51.70;;;;;;4875495;29;20217;-38
2022/09/14 08:46:52;;;;;;;4.85;3.05;;;15.70;51.70;;;;;;4874798;29;20240;-35
2022/09/14 08:49:40;;;;;;;4.10;3.47;;;15.60;51.60;;;;;;4878576;29;20217;-38
2022/09/14 08:52:18;;;;;;;4.53;3.08;;;15.60;51.60;;;;;;4879651;29;20198;-39
2022/09/14 08:54:50;;;;;;;4.22;3.20;;;15.60;51.70;;;;;;4879125;29;20205;-48
2022/09/14 08:57:27;;;;;;;4.63;3.40;;;15.50;51.60;;;;;;4878814;29;20701;-41
2022/09/14 09:00:06;;;;;;;5.55;3.20;;;15.50;51.70;;;;;;4878202;29;20197;-38
2022/09/14 09:02:59;;;;;;;4.30;3.30;;;15.50;51.90;;;;;;4878552;29;20193;-43
2022/09/14 09:05:41;;;;;;;5.82;3.45;;;15.50;52.00;;;;;;4878796;29;20714;-38
2022/09/14 09:08:21;;;;;;;4.97;3.17;;;15.50;52.00;;;;;;4879302;29;20224;-41
2022/09/14 09:10:54;;;;;;;3.92;3.35;;;15.40;52.00;;;;;;4879132;29;20213;-39
2022/09/14 09:13:28;;;;;;;4.80;3.53;;;15.40;52.00;;;;;;4878794;29;20201;-44
2022/09/14 09:16:02;;;;;;;5.13;3.30;;;15.40;52.00;;;;;;4878458;29;20190;-47
2022/09/14 09:18:40;;;;;;;4.50;2.95;;;15.40;52.00;;;;;;4878867;29;20254;-45
2022/09/14 09:21:17;;;;;;;4.20;3.08;;;15.40;52.00;;;;;;4878490;29;20205;-45
2022/09/14 09:23:49;;;;;;;5.78;3.42;;;15.40;52.00;;;;;;4878285;29;20208;-49
2022/09/14 09:26:29;;;;;;;4.53;3.20;;;15.30;52.00;;;;;;4878104;29;20241;-37
2022/09/14 09:29:01;;;;;;;4.93;3.10;;;15.30;52.00;;;;;;4878682;29;20698;-40
2022/09/14 09:31:36;;;;;;;3.20;2.90;;;15.30;52.00;;;;;;4878165;29;20214;-41
2022/09/14 09:34:07;;;;;;;3.55;2.83;;;15.30;52.00;;;;;;4879268;29;20240;-36
2022/09/14 09:36:41;;;;;;;4.82;3.28;;;15.20;52.00;;;;;;4871864;29;20237;-42
2022/09/14 09:39:14;;;;;;;4.60;3.35;;;15.20;52.00;;;;;;4877822;29;20236;-43
2022/09/14 09:41:48;;;;;;;4.07;3.33;;;15.20;52.00;;;;;;4884429;29;20201;-35
2022/09/14 09:44:19;;;;;;;4.40;3.13;;;15.20;52.00;;;;;;4882369;29;20198;-41
2022/09/14 09:46:52;;;;;;;4.43;3.08;;;15.10;52.00;;;;;;4878011;29;20233;-46
2022/09/14 09:49:26;;;;;;;4.13;2.83;;;15.10;52.00;;;;;;4898443;29;20244;-50
2022/09/14 09:51:58;;;;;;;3.95;3.05;;;15.10;52.00;;;;;;4895165;29;20272;-51
2022/09/14 09:54:33;;;;;;;3.75;2.97;;;15.10;51.90;;;;;;4868642;29;20210;-40
2022/09/14 09:57:06;;;;;;;4.70;3.53;;;15.10;51.90;;;;;;4886300;29;20220;-39
2022/09/14 09:59:38;;;;;;;4.60;3.30;;;15.00;51.90;;;;;;4895846;29;20205;-42
2022/09/14 10:02:25;;;;;;;4.28;3.30;;;15.00;51.90;;;;;;4897034;29;20205;-38
2022/09/14 10:05:04;;;;;;;4.20;2.90;;;15.00;51.90;;;;;;4897218;29;20210;-39
2022/09/14 10:07:38;;;;;;;3.25;2.85;;;15.00;51.80;;;;;;4897573;29;20236;-37
2022/09/14 10:10:12;;;;;;;3.92;3.15;;;14.90;51.80;;;;;;4892260;29;20201;-39
2022/09/14 10:12:49;;;;;;;3.58;3.08;;;14.90;51.80;;;;;;4865590;29;20204;-39
2022/09/14 10:15:24;;;;;;;3.38;2.90;;;14.90;51.80;;;;;;4859779;29;20217;-39
2022/09/14 10:18:05;;;;;;;3.60;2.72;;;14.80;51.80;;;;;;4884894;29;20220;-49
2022/09/14 10:20:37;;;;;;;4.50;2.70;;;14.80;51.80;;;;;;4897070;29;20212;-41
2022/09/14 10:23:26;;;;;;;4.72;3.20;;;14.80;51.80;;;;;;4896387;29;20227;-35
2022/09/14 10:26:27;;;;;;;3.95;3.03;;;14.80;51.80;;;;;;4867666;29;20225;-49
2022/09/14 10:29:37;;;;;;;3.60;2.80;;;14.80;51.80;;;;;;4896517;29;20305;-39
2022/09/14 10:32:19;;;;;;;3.20;2.70;;;14.80;51.80;;;;;;4893662;29;20208;-44
2022/09/14 10:34:50;;;;;;;3.83;3.05;;;14.70;51.70;;;;;;4897841;29;20205;-47
2022/09/14 10:37:32;;;;;;;5.28;2.80;;;14.70;51.60;;;;;;4896123;29;20217;-49
2022/09/14 10:40:17;;;;;;;3.10;2.80;;;14.70;51.70;;;;;;4892766;29;20762;-43
2022/09/14 10:43:05;;;;;;;3.55;2.90;;;14.70;51.70;;;;;;4887802;29;20555;-43
2022/09/14 10:45:41;;;;;;;3.25;2.63;;;14.70;51.70;;;;;;4897014;29;20668;-42
2022/09/14 10:48:39;;;;;;;4.22;2.58;;;14.60;51.70;;;;;;4885958;29;20229;-46
2022/09/14 10:51:26;;;;;;;4.25;3.30;;;14.60;51.70;;;;;;4859657;29;20262;-48
2022/09/14 10:54:01;;;;;;;4.03;2.63;;;14.60;51.70;;;;;;4878475;29;20208;-39
2022/09/14 10:56:43;;;;;;;3.15;2.38;;;14.60;51.70;;;;;;4877872;29;20229;-39
2022/09/14 10:59:27;;;;;;;3.67;2.97;;;14.50;51.70;;;;;;4859240;29;20571;-50
2022/09/14 11:02:33;;;;;;;3.53;3.00;;;14.50;51.70;;;;;;4865667;29;20196;-45
2022/09/14 11:05:16;;;;;;;2.70;2.45;;;14.50;51.70;;;;;;4896232;29;20654;-41
2022/09/14 11:08:08;;;;;;;3.47;2.58;;;14.50;51.70;;;;;;4896728;29;20240;-49
2022/09/14 11:10:48;;;;;;;3.70;2.60;;;14.50;51.70;;;;;;4887086;29;20220;-48
2022/09/14 11:13:39;;;;;;;4.97;3.13;;;14.50;51.70;;;;;;4890445;29;20197;-42
2022/09/14 11:16:24;;;;;;;3.92;2.85;;;14.50;51.70;;;;;;4896475;29;20204;-42
2022/09/14 11:19:07;;;;;;;4.85;2.92;;;14.40;51.70;;;;;;4896508;29;20212;-44
2022/09/14 11:21:48;;;;;;;4.57;3.15;;;14.40;51.70;;;;;;4876511;29;20194;-44
2022/09/14 11:24:24;;;;;;;2.92;2.63;;;14.40;51.70;;;;;;4896391;29;20300;-43
2022/09/14 11:27:01;;;;;;;4.07;2.47;;;14.40;51.70;;;;;;4894459;29;20236;-49
2022/09/14 11:29:37;;;;;;;3.85;2.47;;;14.40;51.70;;;;;;4895447;29;20204;-51
2022/09/14 11:32:15;;;;;;;3.85;2.80;;;14.30;51.70;;;;;;4887240;29;20669;-45
2022/09/14 11:34:53;;;;;;;4.82;2.92;;;14.30;51.70;;;;;;4858803;29;20206;-39
2022/09/14 11:37:31;;;;;;;3.20;2.80;;;14.30;51.70;;;;;;4859583;29;20226;-40
2022/09/14 11:40:09;;;;;;;5.70;3.08;;;14.30;51.70;;;;;;4891496;29;20213;-42
2022/09/14 11:42:46;;;;;;;3.53;2.55;;;14.30;51.70;;;;;;4875973;29;20201;-38
2022/09/14 11:45:29;;;;;;;4.82;3.28;;;14.30;51.70;;;;;;4876468;29;20205;-40
2022/09/14 11:48:10;;;;;;;3.70;2.70;;;14.20;51.70;;;;;;4876652;29;20244;-39
2022/09/14 11:50:44;;;;;;;3.05;2.75;;;14.20;51.70;;;;;;4875899;29;20639;-36
2022/09/14 11:53:17;;;;;;;3.97;3.00;;;14.20;51.70;;;;;;4876759;29;20209;-38
2022/09/14 11:55:49;;;;;;;4.22;2.95;;;14.20;51.70;;;;;;4876310;29;20205;-40
2022/09/14 11:58:22;;;;;;;3.22;2.70;;;14.20;51.60;;;;;;4876182;29;20237;-37
2022/09/14 12:01:31;;;;;;;4.35;2.78;;;14.20;51.70;;;;;;4875741;29;20202;-37
2022/09/14 12:04:15;;;;;;;2.95;2.65;;;14.10;51.70;;;;;;4875816;29;20212;-35
2022/09/14 12:06:57;;;;;;;3.63;2.50;;;14.10;51.70;;;;;;4875171;29;20586;-39
2022/09/14 12:09:54;;;;;;;4.70;3.15;;;14.10;51.70;;;;;;4875799;29;20201;-35
2022/09/14 12:12:36;;;;;;;4.45;2.83;;;14.10;51.60;;;;;;4857776;29;20221;-35
2022/09/14 12:15:17;;;;;;;2.97;2.60;;;14.10;51.60;;;;;;4875463;29;20204;-35
2022/09/14 12:17:48;;;;;;;2.47;2.17;;;14.10;51.60;;;;;;4894526;29;20693;-38
2022/09/14 12:20:44;;;;;;;4.70;2.45;;;14.10;51.70;;;;;;4887727;29;20599;-35
2022/09/14 12:23:30;;;;;;;3.35;2.50;;;14.00;51.60;;;;;;4874424;29;20194;-38
2022/09/14 12:26:21;;;;;;;3.45;2.53;;;14.00;51.60;;;;;;4857158;29;20621;-36
2022/09/14 12:28:54;;;;;;;3.65;2.55;;;14.00;51.60;;;;;;4857633;29;20210;-40
2022/09/14 12:31:56;;;;;;;3.15;2.58;;;14.00;51.60;;;;;;4857407;29;20663;-36
2022/09/14 12:34:30;;;;;;;3.55;2.53;;;14.00;51.60;;;;;;4856729;29;20198;-38
2022/09/14 12:37:33;;;;;;;2.97;2.67;;;14.00;51.60;;;;;;4875221;29;20227;-51
2022/09/14 12:40:37;;;;;;;3.55;2.50;;;13.90;51.60;;;;;;4875814;29;20216;-35
2022/09/14 12:43:49;;;;;;;2.53;2.33;;;13.90;51.60;;;;;;4864146;29;20567;-44
2022/09/14 12:46:49;;;;;;;3.03;2.38;;;13.90;51.60;;;;;;4875175;29;20201;-35
2022/09/14 12:49:32;;;;;;;2.67;2.30;;;13.90;51.60;;;;;;4854405;29;20206;-35
2022/09/14 12:52:25;;;;;;;2.65;2.15;;;13.90;51.60;;;;;;4873107;29;20201;-45
2022/09/14 12:55:09;;;;;;;3.88;2.55;;;13.90;51.60;;;;;;4875619;29;20206;-39
2022/09/14 12:57:47;;;;;;;3.80;2.75;;;13.90;51.60;;;;;;4875494;29;20222;-37
2022/09/14 13:00:21;;;;;;;3.38;2.30;;;13.80;51.50;;;;;;4875523;29;20202;-40
2022/09/14 13:03:24;;;;;;;3.05;2.30;;;13.80;51.50;;;;;;4875299;29;20229;-35
2022/09/14 13:05:55;;;;;;;3.63;2.38;;;13.80;51.50;;;;;;4874560;29;20197;-38
2022/09/14 13:08:26;;;;;;;2.58;2.15;;;13.80;51.50;;;;;;4875399;29;20264;-39
2022/09/14 13:10:59;;;;;;;3.35;2.08;;;13.80;51.50;;;;;;4875283;29;20674;-35
2022/09/14 13:13:37;;;;;;;3.17;2.58;;;13.70;51.50;;;;;;4875360;29;20658;-36
2022/09/14 13:16:09;;;;;;;3.15;2.45;;;13.70;51.50;;;;;;4892448;29;20284;-35
2022/09/14 13:18:40;;;;;;;3.85;2.45;;;13.70;51.50;;;;;;4893678;29;20205;-39
2022/09/14 13:21:22;;;;;;;3.55;2.30;;;13.70;51.50;;;;;;4883780;29;20209;-35
2022/09/14 13:23:53;;;;;;;3.22;2.45;;;13.70;51.50;;;;;;4875537;29;20566;-36
2022/09/14 13:26:28;;;;;;;2.42;2.15;;;13.70;51.40;;;;;;4874774;29;20206;-35
2022/09/14 13:29:00;;;;;;;3.30;2.20;;;13.70;51.40;;;;;;4875240;29;20291;-37
2022/09/14 13:31:34;;;;;;;3.03;2.10;;;13.70;51.40;;;;;;4875024;29;20209;-40